Time;durP1;ratioP1;P1;durP2;ratioP2;P2;SDS_P1;SDS_P2;PMS_P1;PMS_P2;Temp;Humidity;BMP_temperature;BMP_pressure;BME280_temperature;BME280_humidity;BME280_pressure;Samples;Min_cycle;Max_cycle;Signal;HPM_P1;HPM_P2
2022/11/30 00:01:25;;;;;;;35.03;24.98;;;3.10;99.90;;;;;;4953436;28;20215;-87
2022/11/30 00:03:54;;;;;;;35.70;21.38;;;3.10;99.90;;;;;;4954064;28;20240;-92
2022/11/30 00:06:24;;;;;;;30.42;23.60;;;3.10;99.90;;;;;;4934891;28;20214;-91
2022/11/30 00:08:53;;;;;;;27.55;21.75;;;3.10;99.90;;;;;;4935545;29;20217;-91
2022/11/30 00:11:23;;;;;;;38.80;25.35;;;3.10;99.90;;;;;;4936963;29;20216;-91
2022/11/30 00:13:51;;;;;;;28.85;23.42;;;3.00;99.90;;;;;;4937144;28;20225;-91
2022/11/30 00:16:19;;;;;;;26.70;22.75;;;3.00;99.90;;;;;;4938617;29;20229;-91
2022/11/30 00:18:49;;;;;;;30.08;23.80;;;3.00;99.90;;;;;;4956161;29;20210;-86
2022/11/30 00:21:18;;;;;;;36.22;23.10;;;3.00;99.90;;;;;;4955743;29;20224;-87
2022/11/30 00:23:47;;;;;;;28.95;22.92;;;2.90;99.90;;;;;;4955710;28;20320;-87
2022/11/30 00:26:18;;;;;;;33.42;23.98;;;2.90;99.90;;;;;;4955234;29;20224;-87
2022/11/30 00:28:46;;;;;;;27.30;21.52;;;2.90;99.90;;;;;;4955936;29;20224;-87
2022/11/30 00:31:16;;;;;;;25.48;21.25;;;2.90;99.90;;;;;;4955498;29;20227;-86
2022/11/30 00:33:45;;;;;;;25.13;21.00;;;2.90;99.90;;;;;;4955430;28;20248;-91
2022/11/30 00:36:17;;;;;;;26.73;21.45;;;2.90;99.90;;;;;;4955511;29;20198;-91
2022/11/30 00:38:46;;;;;;;33.30;22.83;;;2.90;99.90;;;;;;4955206;28;20215;-91
2022/11/30 00:41:15;;;;;;;31.55;23.45;;;2.90;99.90;;;;;;4964649;28;20290;-92
2022/11/30 00:43:43;;;;;;;29.73;23.50;;;2.90;99.90;;;;;;4936522;29;20251;-92
2022/11/30 00:46:12;;;;;;;29.48;23.88;;;2.90;99.90;;;;;;4936288;29;20210;-92
2022/11/30 00:48:41;;;;;;;28.00;22.92;;;2.90;99.90;;;;;;4941779;29;20201;-91
2022/11/30 00:51:10;;;;;;;30.00;22.60;;;2.90;99.90;;;;;;4955603;29;20227;-92
2022/11/30 00:53:41;;;;;;;35.90;26.08;;;2.90;99.90;;;;;;4955053;28;20237;-92
2022/11/30 00:56:09;;;;;;;29.65;24.17;;;3.00;99.90;;;;;;4959217;28;20223;-92
2022/11/30 00:58:38;;;;;;;31.15;24.20;;;3.00;99.90;;;;;;4960839;29;20206;-91
2022/11/30 01:01:06;;;;;;;41.92;25.30;;;3.00;99.90;;;;;;4957330;29;20201;-92
2022/11/30 01:03:36;;;;;;;32.72;23.60;;;3.00;99.90;;;;;;4954969;29;20284;-91
2022/11/30 01:06:05;;;;;;;30.40;25.77;;;3.00;99.90;;;;;;4954921;29;20208;-92
2022/11/30 01:08:34;;;;;;;36.63;25.00;;;3.00;99.90;;;;;;4954353;29;20201;-92
2022/11/30 01:11:12;;;;;;;37.50;24.98;;;3.00;99.90;;;;;;4954889;29;20240;-92
2022/11/30 01:13:40;;;;;;;33.75;25.63;;;3.00;99.90;;;;;;4954941;28;20233;-91
2022/11/30 01:16:10;;;;;;;36.10;25.17;;;3.10;99.90;;;;;;4955121;28;20213;-92
2022/11/30 01:18:39;;;;;;;31.98;25.63;;;3.10;99.90;;;;;;4955033;28;20213;-92
2022/11/30 01:21:08;;;;;;;31.02;25.25;;;3.00;99.90;;;;;;4955007;28;20209;-93
2022/11/30 01:23:38;;;;;;;34.42;26.08;;;3.00;99.90;;;;;;4955175;28;20276;-92
2022/11/30 01:26:09;;;;;;;32.35;24.75;;;3.00;99.90;;;;;;4954054;28;20201;-92
2022/11/30 01:28:39;;;;;;;34.80;24.90;;;3.00;99.90;;;;;;4954970;28;20201;-92
2022/11/30 01:31:09;;;;;;;36.03;23.40;;;3.10;99.90;;;;;;4954736;28;20221;-92
2022/11/30 01:33:38;;;;;;;30.52;23.92;;;3.00;99.90;;;;;;4954510;28;20253;-92
2022/11/30 01:36:10;;;;;;;36.47;25.80;;;3.00;99.90;;;;;;4954818;28;20205;-92
2022/11/30 01:38:42;;;;;;;33.08;24.92;;;3.00;99.90;;;;;;4954592;29;20221;-92
2022/11/30 01:41:15;;;;;;;34.25;24.10;;;3.00;99.90;;;;;;4953876;29;20214;-92
2022/11/30 01:43:45;;;;;;;35.28;24.42;;;3.00;99.90;;;;;;4954509;28;20260;-92
2022/11/30 01:46:24;;;;;;;42.83;26.05;;;3.10;99.90;;;;;;4954198;29;20233;-92
2022/11/30 01:48:59;;;;;;;36.40;25.77;;;3.10;99.90;;;;;;4935525;29;20210;-92
2022/11/30 01:51:34;;;;;;;28.60;25.08;;;3.10;99.90;;;;;;4935797;29;20221;-91
2022/11/30 01:54:05;;;;;;;32.20;25.10;;;3.10;99.90;;;;;;4937413;29;20221;-92
2022/11/30 01:56:37;;;;;;;33.95;26.25;;;3.10;99.90;;;;;;4954585;28;20209;-88
2022/11/30 01:59:05;;;;;;;31.25;24.27;;;3.10;99.90;;;;;;4954297;28;20228;-88
2022/11/30 02:01:34;;;;;;;29.83;24.73;;;3.10;99.90;;;;;;4954280;28;20213;-87
2022/11/30 02:04:07;;;;;;;30.70;24.20;;;3.00;99.90;;;;;;4954281;28;20229;-87
2022/11/30 02:06:35;;;;;;;30.75;24.38;;;3.00;99.90;;;;;;4954382;28;20213;-88
2022/11/30 02:09:04;;;;;;;30.30;25.42;;;3.00;99.90;;;;;;4953990;28;20205;-88
2022/11/30 02:11:32;;;;;;;30.90;24.83;;;3.00;99.90;;;;;;4954216;28;20248;-88
2022/11/30 02:14:15;;;;;;;40.97;25.75;;;3.00;99.90;;;;;;4954314;28;20227;-88
2022/11/30 02:16:53;;;;;;;33.88;24.05;;;3.10;99.90;;;;;;4955006;28;20220;-88
2022/11/30 02:19:57;;;;;;;27.92;23.73;;;3.10;99.90;;;;;;4954676;28;20215;-87
2022/11/30 02:22:43;;;;;;;28.92;23.13;;;3.00;99.90;;;;;;4952086;29;20205;-88
2022/11/30 02:25:21;;;;;;;44.05;26.77;;;3.00;99.90;;;;;;4954072;28;20225;-87
2022/11/30 02:28:03;;;;;;;30.17;23.67;;;3.10;99.90;;;;;;4954174;28;20223;-88
2022/11/30 02:30:37;;;;;;;32.75;24.92;;;3.10;99.90;;;;;;4954445;28;20212;-88
2022/11/30 02:33:12;;;;;;;33.55;23.80;;;3.10;99.90;;;;;;4954342;28;20233;-87
2022/11/30 02:35:44;;;;;;;40.63;27.38;;;3.10;99.90;;;;;;4954763;28;20263;-91
2022/11/30 02:38:21;;;;;;;36.53;26.80;;;3.20;99.90;;;;;;4954457;28;20220;-92
2022/11/30 02:40:49;;;;;;;28.88;24.92;;;3.20;99.90;;;;;;4957693;28;20209;-92
2022/11/30 02:43:19;;;;;;;38.28;24.42;;;3.20;99.90;;;;;;4957603;28;20225;-92
2022/11/30 02:45:59;;;;;;;33.38;23.83;;;3.20;99.90;;;;;;4957488;28;20237;-91
2022/11/30 02:48:32;;;;;;;34.63;25.15;;;3.20;99.90;;;;;;4957365;28;20255;-91
2022/11/30 02:51:03;;;;;;;33.95;25.45;;;3.10;99.90;;;;;;4957509;29;20213;-92
2022/11/30 02:53:32;;;;;;;36.90;26.38;;;3.10;99.90;;;;;;4957220;28;20243;-91
2022/11/30 02:56:00;;;;;;;35.85;26.67;;;3.20;99.90;;;;;;4957652;29;20205;-92
2022/11/30 02:58:29;;;;;;;34.80;27.52;;;3.20;99.90;;;;;;4956795;29;20209;-92
2022/11/30 03:00:58;;;;;;;30.92;23.55;;;3.20;99.90;;;;;;4957582;29;20213;-92
2022/11/30 03:03:27;;;;;;;42.83;25.50;;;3.20;99.90;;;;;;4957125;28;20240;-92
2022/11/30 03:05:55;;;;;;;44.90;28.10;;;3.20;99.90;;;;;;4956898;29;20217;-91
2022/11/30 03:08:23;;;;;;;38.58;26.25;;;3.20;99.90;;;;;;4957305;29;20211;-92
2022/11/30 03:10:51;;;;;;;42.92;27.48;;;3.20;99.90;;;;;;4957141;29;20216;-92
2022/11/30 03:13:20;;;;;;;40.45;26.95;;;3.20;99.90;;;;;;4956816;28;20233;-92
2022/11/30 03:15:48;;;;;;;37.78;26.33;;;3.10;99.90;;;;;;4956919;29;20298;-91
2022/11/30 03:18:18;;;;;;;36.45;27.33;;;3.20;99.90;;;;;;4956816;29;20212;-91
2022/11/30 03:20:46;;;;;;;34.22;26.17;;;3.10;99.90;;;;;;4956604;29;20223;-91
2022/11/30 03:23:14;;;;;;;36.53;26.85;;;3.20;99.90;;;;;;4956940;29;20239;-92
2022/11/30 03:25:42;;;;;;;32.15;25.55;;;3.10;99.90;;;;;;4956386;28;20225;-92
2022/11/30 03:28:11;;;;;;;34.72;27.55;;;3.10;99.90;;;;;;4956311;28;20209;-92
2022/11/30 03:30:39;;;;;;;38.92;27.70;;;3.10;99.90;;;;;;4957141;28;20215;-92
2022/11/30 03:33:07;;;;;;;36.10;25.52;;;3.10;99.90;;;;;;4956579;28;20244;-91
2022/11/30 03:35:37;;;;;;;47.38;28.35;;;3.10;99.90;;;;;;4956350;28;20245;-92
2022/11/30 03:38:05;;;;;;;29.67;24.23;;;3.20;99.90;;;;;;4956603;28;20211;-92
2022/11/30 03:40:33;;;;;;;37.55;27.83;;;3.10;99.90;;;;;;4956671;29;20211;-92
2022/11/30 03:43:01;;;;;;;38.33;28.40;;;3.10;99.90;;;;;;4956057;28;20225;-92
2022/11/30 03:45:30;;;;;;;32.67;25.35;;;3.10;99.90;;;;;;4958505;29;20316;-91
2022/11/30 03:47:58;;;;;;;41.22;27.70;;;3.10;99.90;;;;;;4959172;29;20211;-92
2022/11/30 03:50:27;;;;;;;43.47;26.98;;;3.20;99.90;;;;;;4955955;28;20210;-91
2022/11/30 03:52:56;;;;;;;32.47;25.52;;;3.20;99.90;;;;;;4956834;28;20225;-91
2022/11/30 03:55:25;;;;;;;34.60;25.05;;;3.20;99.90;;;;;;4956198;28;20209;-91
2022/11/30 03:57:53;;;;;;;33.90;27.02;;;3.30;99.90;;;;;;4956195;28;20209;-92
2022/11/30 04:00:21;;;;;;;39.33;26.73;;;3.30;99.90;;;;;;4956034;29;20206;-91
2022/11/30 04:02:50;;;;;;;45.28;28.55;;;3.30;99.90;;;;;;4956259;28;20240;-92
2022/11/30 04:05:21;;;;;;;41.03;28.23;;;3.20;99.90;;;;;;4956201;29;20209;-91
2022/11/30 04:07:49;;;;;;;40.33;28.33;;;3.20;99.90;;;;;;4955581;29;20209;-92
2022/11/30 04:10:19;;;;;;;33.70;26.58;;;3.20;99.90;;;;;;4956143;29;20208;-91
2022/11/30 04:12:47;;;;;;;39.38;27.08;;;3.20;99.90;;;;;;4955958;28;20228;-92
2022/11/30 04:15:15;;;;;;;35.13;26.40;;;3.20;99.90;;;;;;4955845;29;20217;-87
2022/11/30 04:17:44;;;;;;;36.10;27.70;;;3.20;99.90;;;;;;4955570;29;20213;-88
2022/11/30 04:20:12;;;;;;;34.15;25.52;;;3.20;99.90;;;;;;4955581;29;20201;-87
2022/11/30 04:22:41;;;;;;;36.05;26.63;;;3.20;99.90;;;;;;4957213;28;20225;-87
2022/11/30 04:25:09;;;;;;;34.33;27.40;;;3.10;99.90;;;;;;4955490;29;20212;-88
2022/11/30 04:27:39;;;;;;;34.75;25.98;;;3.10;99.90;;;;;;4955215;29;20243;-87
2022/11/30 04:30:09;;;;;;;34.00;25.13;;;3.10;99.90;;;;;;4955944;29;20224;-87
2022/11/30 04:32:37;;;;;;;43.20;27.17;;;3.10;99.90;;;;;;4955563;28;20236;-87
2022/11/30 04:35:06;;;;;;;39.53;27.52;;;3.20;99.90;;;;;;4955074;29;20220;-87
2022/11/30 04:37:34;;;;;;;30.00;24.85;;;3.20;99.90;;;;;;4955570;28;20215;-87
2022/11/30 04:40:03;;;;;;;37.28;26.85;;;3.20;99.90;;;;;;4955685;28;20217;-87
2022/11/30 04:42:31;;;;;;;31.13;24.65;;;3.20;99.90;;;;;;4954974;28;20216;-87
2022/11/30 04:45:01;;;;;;;36.47;25.60;;;3.20;99.90;;;;;;4955369;28;20208;-87
2022/11/30 04:47:29;;;;;;;30.45;25.13;;;3.20;99.90;;;;;;4954804;28;20225;-87
2022/11/30 04:49:58;;;;;;;35.67;25.60;;;3.20;99.90;;;;;;4955169;28;20209;-87
2022/11/30 04:52:26;;;;;;;34.38;27.27;;;3.20;99.90;;;;;;4955215;29;20213;-87
2022/11/30 04:54:55;;;;;;;35.15;27.13;;;3.20;99.90;;;;;;4955177;28;20209;-87
2022/11/30 04:57:24;;;;;;;35.33;28.33;;;3.30;99.90;;;;;;4955132;28;20205;-87
2022/11/30 04:59:52;;;;;;;28.60;24.90;;;3.30;99.90;;;;;;4954803;29;20287;-87
2022/11/30 05:02:22;;;;;;;33.45;26.73;;;3.30;99.90;;;;;;4954104;28;20209;-87
2022/11/30 05:04:50;;;;;;;38.08;28.25;;;3.30;99.90;;;;;;4954970;29;20208;-86
2022/11/30 05:07:19;;;;;;;36.33;26.45;;;3.30;99.90;;;;;;4954271;29;20267;-86
2022/11/30 05:09:47;;;;;;;38.80;26.85;;;3.30;99.90;;;;;;4954679;29;20205;-88
2022/11/30 05:12:15;;;;;;;33.35;26.08;;;3.30;99.90;;;;;;4954857;28;20209;-87
2022/11/30 05:14:44;;;;;;;36.85;27.17;;;3.30;99.90;;;;;;4955000;29;20213;-87
2022/11/30 05:17:13;;;;;;;33.42;25.98;;;3.30;99.90;;;;;;4955076;28;20212;-91
2022/11/30 05:19:43;;;;;;;38.53;28.13;;;3.30;99.90;;;;;;4954988;28;20201;-91
2022/11/30 05:22:11;;;;;;;33.58;26.50;;;3.30;99.90;;;;;;4955292;28;20209;-91
2022/11/30 05:24:42;;;;;;;32.00;25.70;;;3.30;99.90;;;;;;4954603;28;20212;-89
2022/11/30 05:27:11;;;;;;;33.75;27.15;;;3.30;99.90;;;;;;4954347;28;20209;-92
2022/11/30 05:29:46;;;;;;;35.55;26.98;;;3.40;99.90;;;;;;4954592;29;20284;-91
2022/11/30 05:32:14;;;;;;;31.58;25.75;;;3.30;99.90;;;;;;4954559;28;20224;-91
2022/11/30 05:34:44;;;;;;;32.97;26.73;;;3.40;99.90;;;;;;4954485;29;20217;-90
2022/11/30 05:37:18;;;;;;;44.70;26.75;;;3.40;99.90;;;;;;4954671;28;20216;-91
2022/11/30 05:39:46;;;;;;;38.03;27.77;;;3.40;99.90;;;;;;4953606;28;20215;-92
2022/11/30 05:42:15;;;;;;;32.95;25.48;;;3.40;99.90;;;;;;4954009;28;20224;-91
2022/11/30 05:44:43;;;;;;;33.25;28.08;;;3.40;99.90;;;;;;4954704;28;20220;-91
2022/11/30 05:47:13;;;;;;;46.63;27.83;;;3.40;99.90;;;;;;4954071;29;20221;-91
2022/11/30 05:49:42;;;;;;;34.88;26.25;;;3.40;99.90;;;;;;4954739;28;20209;-92
2022/11/30 05:52:11;;;;;;;34.25;26.60;;;3.40;99.90;;;;;;4954872;28;20296;-91
2022/11/30 05:54:39;;;;;;;31.88;25.20;;;3.40;99.90;;;;;;4954578;28;20213;-91
2022/11/30 05:57:07;;;;;;;32.03;25.25;;;3.40;99.90;;;;;;4954335;28;20209;-91
2022/11/30 05:59:35;;;;;;;37.03;27.23;;;3.40;99.90;;;;;;4954535;28;20221;-91
2022/11/30 06:02:03;;;;;;;37.08;27.45;;;3.40;99.90;;;;;;4954361;28;20212;-91
2022/11/30 06:04:33;;;;;;;36.40;28.45;;;3.50;99.90;;;;;;4954549;28;20232;-91
2022/11/30 06:07:03;;;;;;;32.70;27.20;;;3.40;99.90;;;;;;4954033;28;20233;-91
2022/11/30 06:09:31;;;;;;;36.10;28.27;;;3.50;99.90;;;;;;4954353;28;20205;-91
2022/11/30 06:11:59;;;;;;;36.92;29.33;;;3.40;99.90;;;;;;4953952;28;20209;-91
2022/11/30 06:14:28;;;;;;;36.20;28.00;;;3.40;99.90;;;;;;4958099;28;20229;-91
2022/11/30 06:16:56;;;;;;;39.42;28.77;;;3.40;99.90;;;;;;4957892;28;20210;-91
2022/11/30 06:19:24;;;;;;;34.22;26.13;;;3.40;99.90;;;;;;4958068;28;20211;-91
2022/11/30 06:21:52;;;;;;;32.67;28.02;;;3.40;99.90;;;;;;4957889;28;20237;-91
2022/11/30 06:24:22;;;;;;;38.63;28.48;;;3.50;99.90;;;;;;4956975;28;20312;-88
2022/11/30 06:26:51;;;;;;;39.67;29.00;;;3.50;99.90;;;;;;4956319;28;20217;-86
2022/11/30 06:29:19;;;;;;;44.47;28.80;;;3.40;99.90;;;;;;4951917;28;20217;-86
2022/11/30 06:31:47;;;;;;;44.67;28.30;;;3.50;99.90;;;;;;4956997;28;20201;-87
2022/11/30 06:34:15;;;;;;;38.40;28.95;;;3.50;99.90;;;;;;4956087;28;20240;-86
2022/11/30 06:36:44;;;;;;;33.78;27.35;;;3.50;99.90;;;;;;4957423;29;20209;-87
2022/11/30 06:39:12;;;;;;;35.92;28.88;;;3.50;99.90;;;;;;4956656;29;20205;-88
2022/11/30 06:41:42;;;;;;;32.63;26.80;;;3.50;99.90;;;;;;4957369;29;20212;-87
2022/11/30 06:44:11;;;;;;;39.20;28.63;;;3.50;99.90;;;;;;4957550;28;20244;-87
2022/11/30 06:46:39;;;;;;;34.92;26.60;;;3.50;99.90;;;;;;4957488;29;20217;-88
2022/11/30 06:49:07;;;;;;;32.65;25.92;;;3.50;99.90;;;;;;4956994;29;20213;-88
2022/11/30 06:51:38;;;;;;;38.42;27.33;;;3.50;99.90;;;;;;4957020;29;20205;-87
2022/11/30 06:54:07;;;;;;;58.13;29.02;;;3.50;99.90;;;;;;4953959;28;20233;-87
2022/11/30 06:56:36;;;;;;;34.72;28.33;;;3.50;99.90;;;;;;4957866;28;20212;-90
2022/11/30 06:59:05;;;;;;;40.33;28.20;;;3.60;99.90;;;;;;4956870;29;20208;-88
2022/11/30 07:01:34;;;;;;;38.17;28.00;;;3.60;99.90;;;;;;4956820;29;20205;-85
2022/11/30 07:04:02;;;;;;;41.78;27.52;;;3.60;99.90;;;;;;4956818;28;20251;-86
2022/11/30 07:06:30;;;;;;;33.92;26.98;;;3.60;99.90;;;;;;4957166;29;20259;-86
2022/11/30 07:08:58;;;;;;;37.88;28.17;;;3.70;99.90;;;;;;4956138;29;20237;-86
2022/11/30 07:11:26;;;;;;;34.60;27.55;;;3.70;99.90;;;;;;4956753;28;20290;-86
2022/11/30 07:13:55;;;;;;;34.90;28.42;;;3.70;99.90;;;;;;4957226;28;20229;-86
2022/11/30 07:16:24;;;;;;;40.17;27.35;;;3.70;99.90;;;;;;4956593;28;20217;-86
2022/11/30 07:18:53;;;;;;;34.67;27.25;;;3.70;99.90;;;;;;4956317;28;20231;-86
2022/11/30 07:21:21;;;;;;;33.15;27.27;;;3.70;99.90;;;;;;4956536;28;20205;-86
2022/11/30 07:26:35;;;;;;;39.15;26.98;;;3.70;99.90;;;;;;4956722;28;20209;-86
2022/11/30 07:29:04;;;;;;;35.38;26.70;;;3.70;99.90;;;;;;4956019;29;20229;-86
2022/11/30 07:31:34;;;;;;;39.80;28.30;;;3.70;99.90;;;;;;4956671;29;20209;-86
2022/11/30 07:34:05;;;;;;;43.97;27.73;;;3.80;99.90;;;;;;4956352;28;20241;-86
2022/11/30 07:36:35;;;;;;;39.42;27.50;;;3.80;99.90;;;;;;4956214;29;20229;-86
2022/11/30 07:39:04;;;;;;;40.65;29.98;;;3.80;99.90;;;;;;4956098;29;20296;-86
2022/11/30 07:41:32;;;;;;;38.33;29.35;;;3.80;99.90;;;;;;4956249;29;20220;-86
2022/11/30 07:44:00;;;;;;;41.35;29.88;;;3.80;99.90;;;;;;4955790;28;20225;-86
2022/11/30 07:46:30;;;;;;;40.33;29.58;;;3.80;99.90;;;;;;4956276;29;20209;-85
2022/11/30 07:49:00;;;;;;;36.60;27.05;;;3.80;99.90;;;;;;4955097;29;20229;-86
2022/11/30 07:51:28;;;;;;;33.97;26.83;;;3.80;99.90;;;;;;4956035;29;20217;-86
2022/11/30 07:53:57;;;;;;;39.95;26.95;;;3.90;99.90;;;;;;4947122;28;20240;-86
2022/11/30 07:56:26;;;;;;;33.95;27.60;;;3.90;99.90;;;;;;4936941;29;20218;-86
2022/11/30 07:58:57;;;;;;;36.08;27.98;;;3.90;99.90;;;;;;4936452;29;20216;-87
2022/11/30 08:01:28;;;;;;;35.97;27.70;;;3.90;99.90;;;;;;4952113;29;20205;-88
2022/11/30 08:03:57;;;;;;;35.08;27.38;;;3.80;99.90;;;;;;4955603;28;20309;-89
2022/11/30 08:06:29;;;;;;;40.83;29.85;;;3.90;99.90;;;;;;4956198;29;20255;-89
2022/11/30 08:08:59;;;;;;;44.53;27.63;;;3.90;99.90;;;;;;4955364;29;20232;-92
2022/11/30 08:11:30;;;;;;;36.88;27.77;;;3.90;99.90;;;;;;4955753;29;20213;-92
2022/11/30 08:13:58;;;;;;;32.97;25.85;;;4.00;99.90;;;;;;4955648;28;20233;-91
2022/11/30 08:16:29;;;;;;;35.40;27.45;;;4.00;99.90;;;;;;4955606;28;20205;-89
2022/11/30 08:18:58;;;;;;;34.58;27.13;;;4.10;99.90;;;;;;4955369;28;20208;-90
2022/11/30 08:21:31;;;;;;;34.22;26.65;;;4.20;99.90;;;;;;4955633;28;20209;-90
2022/11/30 08:23:59;;;;;;;37.45;26.55;;;4.20;99.90;;;;;;4955622;28;20248;-90
2022/11/30 08:26:30;;;;;;;33.70;25.38;;;4.20;99.90;;;;;;4955242;28;20213;-89
2022/11/30 08:29:00;;;;;;;34.75;25.50;;;4.30;99.90;;;;;;4954368;28;20232;-89
2022/11/30 08:31:33;;;;;;;32.00;24.60;;;4.30;99.90;;;;;;4955528;28;20208;-89
2022/11/30 08:34:04;;;;;;;35.42;25.80;;;4.30;99.90;;;;;;4954873;29;20316;-89
2022/11/30 08:36:34;;;;;;;27.23;22.65;;;4.30;99.90;;;;;;4953292;28;20204;-88
2022/11/30 08:39:04;;;;;;;31.40;25.35;;;4.30;99.90;;;;;;4953727;29;20225;-88
2022/11/30 08:41:33;;;;;;;30.13;23.65;;;4.30;99.90;;;;;;4955563;28;20216;-88
2022/11/30 08:44:02;;;;;;;26.30;23.05;;;4.30;99.90;;;;;;4955175;28;20233;-88
2022/11/30 08:46:30;;;;;;;32.38;23.98;;;4.40;99.90;;;;;;4955053;29;20213;-88
2022/11/30 08:49:19;;;;;;;30.38;24.23;;;4.40;99.90;;;;;;4954957;29;20264;-88
2022/11/30 08:51:54;;;;;;;32.65;22.98;;;4.40;99.90;;;;;;4954820;28;20284;-87
2022/11/30 08:54:43;;;;;;;26.85;21.83;;;4.40;99.90;;;;;;4954666;29;20201;-88
2022/11/30 08:57:14;;;;;;;32.15;23.00;;;4.50;99.90;;;;;;4954515;29;20227;-87
2022/11/30 08:59:42;;;;;;;29.17;23.70;;;4.40;99.90;;;;;;4954497;29;20197;-89
2022/11/30 09:02:12;;;;;;;54.97;23.30;;;4.40;99.90;;;;;;4954915;28;20205;-88
2022/11/30 09:04:40;;;;;;;28.73;23.08;;;4.50;99.90;;;;;;4956285;29;20237;-89
2022/11/30 09:07:10;;;;;;;26.85;20.90;;;4.60;99.90;;;;;;4954643;29;20216;-87
2022/11/30 09:09:38;;;;;;;26.75;22.38;;;4.70;99.90;;;;;;4954658;28;20229;-87
2022/11/30 09:12:07;;;;;;;27.75;21.60;;;4.70;99.90;;;;;;4955203;28;20212;-87
2022/11/30 09:14:35;;;;;;;25.80;22.35;;;4.80;99.90;;;;;;4955044;28;20225;-87
2022/11/30 09:17:05;;;;;;;28.90;20.77;;;4.90;99.90;;;;;;4954694;28;20293;-84
2022/11/30 09:19:33;;;;;;;30.58;22.38;;;4.90;99.90;;;;;;4954998;29;20216;-84
2022/11/30 09:22:01;;;;;;;30.70;22.25;;;5.00;99.90;;;;;;4954652;28;20213;-84
2022/11/30 09:24:31;;;;;;;27.55;22.65;;;5.00;99.90;;;;;;4954667;28;20233;-84
2022/11/30 09:26:59;;;;;;;29.20;21.98;;;5.00;99.90;;;;;;4954474;28;20209;-86
2022/11/30 09:29:27;;;;;;;26.00;21.35;;;5.10;99.90;;;;;;4954773;28;20232;-89
2022/11/30 09:31:55;;;;;;;30.65;23.02;;;5.10;99.90;;;;;;4954540;28;20214;-87
2022/11/30 09:34:23;;;;;;;25.77;21.55;;;5.10;99.90;;;;;;4954335;28;20236;-86
2022/11/30 09:36:51;;;;;;;23.73;21.25;;;5.10;99.90;;;;;;4954128;28;20209;-88
2022/11/30 09:39:20;;;;;;;27.20;22.15;;;5.10;99.90;;;;;;4954362;28;20217;-87
2022/11/30 09:42:39;;;;;;;27.70;23.33;;;5.20;99.90;;;;;;4954549;29;20217;-87
2022/11/30 09:45:13;;;;;;;27.33;22.98;;;5.20;99.90;;;;;;4954403;28;20216;-88
2022/11/30 09:48:12;;;;;;;31.83;23.67;;;5.30;99.90;;;;;;4955670;28;20235;-87
2022/11/30 09:50:43;;;;;;;30.08;22.60;;;5.30;99.90;;;;;;4957758;28;20205;-88
2022/11/30 09:53:19;;;;;;;39.17;24.27;;;5.40;99.90;;;;;;4958501;28;20229;-88
2022/11/30 09:55:56;;;;;;;25.35;21.30;;;5.50;99.90;;;;;;4958800;29;20209;-88
2022/11/30 09:58:36;;;;;;;28.10;21.40;;;5.60;99.90;;;;;;4958071;28;20206;-87
2022/11/30 10:01:06;;;;;;;29.95;22.63;;;5.60;99.90;;;;;;4958052;28;20243;-88
2022/11/30 10:03:34;;;;;;;26.88;22.33;;;5.60;99.90;;;;;;4957844;28;20227;-88
2022/11/30 10:06:10;;;;;;;28.35;23.75;;;5.70;99.90;;;;;;4958163;28;20201;-88
2022/11/30 10:08:51;;;;;;;24.98;22.25;;;5.70;99.90;;;;;;4958105;28;20232;-87
2022/11/30 10:11:38;;;;;;;29.23;21.98;;;5.60;99.90;;;;;;4958083;28;20232;-88
2022/11/30 10:14:33;;;;;;;31.00;24.10;;;5.70;99.90;;;;;;4957952;28;20316;-87
2022/11/30 10:17:09;;;;;;;37.15;23.55;;;5.90;99.90;;;;;;4957942;28;20209;-87
2022/11/30 10:19:57;;;;;;;34.45;21.88;;;6.00;99.90;;;;;;4957839;28;20232;-87
2022/11/30 10:22:34;;;;;;;32.20;21.33;;;6.10;99.90;;;;;;4958166;28;20212;-89
2022/11/30 10:25:14;;;;;;;26.13;22.77;;;6.20;99.90;;;;;;4957935;28;20209;-89
2022/11/30 10:27:50;;;;;;;25.80;22.30;;;6.20;99.90;;;;;;4957546;28;20208;-90
2022/11/30 10:30:22;;;;;;;28.13;21.88;;;6.30;99.90;;;;;;4957737;28;20240;-89
2022/11/30 10:32:53;;;;;;;24.42;20.63;;;6.30;99.90;;;;;;4957481;28;20270;-89
2022/11/30 10:35:31;;;;;;;23.08;20.60;;;6.30;99.90;;;;;;4957888;28;20220;-89
2022/11/30 10:38:05;;;;;;;27.52;21.33;;;6.40;99.90;;;;;;4957582;28;20213;-89
2022/11/30 10:40:38;;;;;;;33.58;22.25;;;6.40;99.90;;;;;;4957365;28;20209;-90
2022/11/30 10:43:17;;;;;;;23.83;20.25;;;6.40;99.90;;;;;;4957687;28;20236;-89
2022/11/30 10:45:50;;;;;;;27.33;18.27;;;6.40;99.90;;;;;;4957049;29;20209;-89
2022/11/30 10:48:26;;;;;;;20.73;17.60;;;6.30;99.90;;;;;;4957202;28;20283;-89
2022/11/30 10:50:54;;;;;;;27.02;19.52;;;6.20;99.90;;;;;;4956831;28;20301;-90
2022/11/30 10:53:23;;;;;;;30.05;20.08;;;6.20;99.90;;;;;;4957282;28;20259;-89
2022/11/30 10:55:59;;;;;;;28.67;21.83;;;6.20;99.90;;;;;;4957306;28;20209;-89
2022/11/30 10:58:32;;;;;;;22.52;19.58;;;6.20;99.90;;;;;;4956608;28;20304;-89
2022/11/30 11:01:08;;;;;;;23.40;19.05;;;6.20;99.90;;;;;;4956536;28;20217;-90
2022/11/30 11:03:37;;;;;;;24.42;19.38;;;6.30;99.90;;;;;;4957473;28;20233;-89
2022/11/30 11:06:12;;;;;;;23.00;16.60;;;6.30;99.90;;;;;;4957401;28;20209;-89
2022/11/30 11:08:44;;;;;;;24.13;17.48;;;6.30;99.90;;;;;;4956823;28;20221;-89
2022/11/30 11:11:31;;;;;;;20.35;18.13;;;6.40;99.90;;;;;;4958755;28;20304;-90
2022/11/30 11:14:16;;;;;;;24.98;18.45;;;6.40;99.90;;;;;;4956876;28;20244;-88
2022/11/30 11:16:54;;;;;;;23.15;18.63;;;6.50;99.90;;;;;;4957204;28;20224;-89
2022/11/30 11:19:25;;;;;;;20.25;18.00;;;6.60;99.90;;;;;;4957013;28;20205;-88
2022/11/30 11:21:54;;;;;;;27.13;20.95;;;6.60;99.90;;;;;;4956827;28;20216;-89
2022/11/30 11:24:26;;;;;;;25.60;19.17;;;6.60;99.90;;;;;;4956746;28;20235;-87
2022/11/30 11:26:56;;;;;;;19.15;16.92;;;6.60;99.90;;;;;;4956424;28;20221;-86
2022/11/30 11:32:22;;;;;;;19.42;16.90;;;6.60;99.90;;;;;;4957092;28;20205;-86
2022/11/30 11:34:51;;;;;;;24.60;18.50;;;6.70;99.90;;;;;;4956971;28;20220;-86
2022/11/30 11:37:25;;;;;;;27.00;16.42;;;6.70;99.90;;;;;;4956501;28;20313;-87
2022/11/30 11:39:58;;;;;;;20.33;16.77;;;6.70;99.90;;;;;;4956527;28;20315;-87
2022/11/30 11:42:30;;;;;;;22.52;18.08;;;6.60;99.90;;;;;;4956427;28;20216;-87
2022/11/30 11:45:00;;;;;;;19.88;17.30;;;6.70;99.90;;;;;;4956296;28;20209;-86
2022/11/30 11:47:38;;;;;;;17.25;15.43;;;6.80;99.90;;;;;;4956234;29;20209;-86
2022/11/30 11:50:22;;;;;;;15.80;13.90;;;6.80;99.90;;;;;;4956210;28;20296;-86
2022/11/30 11:53:23;;;;;;;16.52;14.60;;;6.80;99.90;;;;;;4955817;28;20227;-86
2022/11/30 11:55:57;;;;;;;16.48;14.23;;;6.80;99.90;;;;;;4956474;28;20213;-86
2022/11/30 11:58:38;;;;;;;14.18;12.70;;;6.70;99.90;;;;;;4955946;28;20268;-88
2022/11/30 12:01:11;;;;;;;16.95;14.18;;;6.70;99.90;;;;;;4955918;28;20227;-86
2022/11/30 12:04:15;;;;;;;17.80;14.15;;;6.70;99.90;;;;;;4956245;28;20276;-86
2022/11/30 12:06:47;;;;;;;26.48;15.00;;;6.70;99.90;;;;;;4955768;28;20209;-86
2022/11/30 12:09:18;;;;;;;16.55;14.60;;;6.70;99.90;;;;;;4956115;28;20205;-86
2022/11/30 12:11:48;;;;;;;19.05;15.68;;;6.70;99.90;;;;;;4955364;28;20217;-86
2022/11/30 12:14:18;;;;;;;24.80;15.77;;;6.80;99.90;;;;;;4955743;28;20225;-86
2022/11/30 12:17:01;;;;;;;20.17;15.48;;;6.80;99.90;;;;;;4955602;28;20205;-86
2022/11/30 12:19:37;;;;;;;18.27;15.90;;;6.80;99.90;;;;;;4955575;28;20213;-86
2022/11/30 12:22:21;;;;;;;17.63;15.40;;;6.90;99.90;;;;;;4955856;28;20208;-86
2022/11/30 12:25:00;;;;;;;23.20;16.73;;;6.90;99.90;;;;;;4955702;28;20236;-86
2022/11/30 12:27:41;;;;;;;22.58;15.55;;;6.90;99.90;;;;;;4955271;29;20248;-86
2022/11/30 12:30:17;;;;;;;17.10;14.45;;;6.90;99.90;;;;;;4955405;28;20241;-86
2022/11/30 12:33:08;;;;;;;19.77;15.43;;;7.00;99.90;;;;;;4955490;28;20229;-86
2022/11/30 12:35:46;;;;;;;16.38;14.38;;;7.00;99.90;;;;;;4955513;28;20215;-86
2022/11/30 12:38:26;;;;;;;17.33;14.20;;;7.00;99.90;;;;;;4955149;28;20219;-89
2022/11/30 12:41:05;;;;;;;14.52;12.98;;;7.10;99.90;;;;;;4955257;28;20209;-88
2022/11/30 12:43:44;;;;;;;14.77;13.13;;;7.10;99.90;;;;;;4955123;28;20225;-88
2022/11/30 12:46:19;;;;;;;16.83;13.73;;;7.00;99.90;;;;;;4955025;28;20216;-88
2022/11/30 12:48:56;;;;;;;14.10;12.63;;;7.00;99.90;;;;;;4955070;28;20231;-88
2022/11/30 12:51:35;;;;;;;15.32;12.70;;;7.00;99.90;;;;;;4954704;28;20299;-88
2022/11/30 12:54:13;;;;;;;16.85;11.20;;;7.00;99.90;;;;;;4955107;28;20232;-88
2022/11/30 12:56:48;;;;;;;15.15;11.85;;;7.00;99.90;;;;;;4954835;28;20205;-89
2022/11/30 12:59:28;;;;;;;15.65;12.05;;;7.00;99.90;;;;;;4955055;28;20220;-88
2022/11/30 13:02:20;;;;;;;15.40;10.15;;;7.00;99.90;;;;;;4955521;28;20213;-89
2022/11/30 13:04:51;;;;;;;14.85;9.52;;;7.00;99.90;;;;;;4954996;28;20224;-88